sensor_id;sensor_type;location;lat;lon;timestamp;pressure;altitude;pressure_sealevel;temperature;humidity
21185;BME280;18176;49.502;11.754;2022-12-29T00:01:46;96634.13;;;10.98;53.34
21185;BME280;18176;49.502;11.754;2022-12-29T00:05:54;96634.91;;;10.82;53.69
21185;BME280;18176;49.502;11.754;2022-12-29T00:09:55;96618.56;;;10.73;53.50
21185;BME280;18176;49.502;11.754;2022-12-29T00:13:55;96620.31;;;10.96;53.12
21185;BME280;18176;49.502;11.754;2022-12-29T00:18:08;96628.31;;;11.01;53.15
21185;BME280;18176;49.502;11.754;2022-12-29T00:22:14;96610.38;;;10.75;53.39
21185;BME280;18176;49.502;11.754;2022-12-29T00:26:27;96608.38;;;10.98;53.34
21185;BME280;18176;49.502;11.754;2022-12-29T00:30:39;96608.97;;;11.00;53.17
21185;BME280;18176;49.502;11.754;2022-12-29T00:34:52;96609.94;;;11.11;52.70
21185;BME280;18176;49.502;11.754;2022-12-29T00:39:16;96603.81;;;10.94;53.30
21185;BME280;18176;49.502;11.754;2022-12-29T00:43:31;96589.75;;;11.10;52.78
21185;BME280;18176;49.502;11.754;2022-12-29T00:47:43;96599.41;;;10.99;53.18
21185;BME280;18176;49.502;11.754;2022-12-29T00:51:43;96608.72;;;11.02;52.82
21185;BME280;18176;49.502;11.754;2022-12-29T00:55:46;96598.44;;;10.89;53.59
21185;BME280;18176;49.502;11.754;2022-12-29T00:59:46;96595.41;;;11.13;52.92
21185;BME280;18176;49.502;11.754;2022-12-29T01:03:47;96612.25;;;11.24;52.55
21185;BME280;18176;49.502;11.754;2022-12-29T01:07:49;96588.63;;;11.06;52.85
21185;BME280;18176;49.502;11.754;2022-12-29T01:11:52;96593.69;;;11.24;52.38
21185;BME280;18176;49.502;11.754;2022-12-29T01:15:53;96584.22;;;10.95;53.27
21185;BME280;18176;49.502;11.754;2022-12-29T01:19:53;96592.16;;;10.95;53.09
21185;BME280;18176;49.502;11.754;2022-12-29T01:23:53;96585.06;;;10.67;54.13
21185;BME280;18176;49.502;11.754;2022-12-29T01:27:56;96586.97;;;10.55;54.24
21185;BME280;18176;49.502;11.754;2022-12-29T01:31:56;96588.91;;;10.59;54.05
21185;BME280;18176;49.502;11.754;2022-12-29T01:36:00;96594.19;;;10.59;54.09
21185;BME280;18176;49.502;11.754;2022-12-29T01:40:00;96580.09;;;10.71;53.93
21185;BME280;18176;49.502;11.754;2022-12-29T01:44:53;96586.81;;;10.62;54.36
21185;BME280;18176;49.502;11.754;2022-12-29T01:49:04;96583.63;;;10.76;54.61
21185;BME280;18176;49.502;11.754;2022-12-29T01:53:10;96570.00;;;10.68;55.18
21185;BME280;18176;49.502;11.754;2022-12-29T01:57:17;96564.84;;;10.78;55.35
21185;BME280;18176;49.502;11.754;2022-12-29T02:01:21;96553.59;;;10.87;55.56
21185;BME280;18176;49.502;11.754;2022-12-29T02:05:33;96544.13;;;10.75;56.24
21185;BME280;18176;49.502;11.754;2022-12-29T02:09:34;96534.09;;;10.77;56.28
21185;BME280;18176;49.502;11.754;2022-12-29T02:13:35;96536.41;;;10.56;56.83
21185;BME280;18176;49.502;11.754;2022-12-29T02:18:00;96533.91;;;10.67;56.86
21185;BME280;18176;49.502;11.754;2022-12-29T02:22:18;96529.34;;;10.62;56.92
21185;BME280;18176;49.502;11.754;2022-12-29T02:26:42;96535.19;;;10.47;57.08
21185;BME280;18176;49.502;11.754;2022-12-29T02:31:02;96534.16;;;10.48;57.61
21185;BME280;18176;49.502;11.754;2022-12-29T02:35:13;96529.47;;;10.39;57.94
21185;BME280;18176;49.502;11.754;2022-12-29T02:39:34;96512.44;;;10.35;57.68
21185;BME280;18176;49.502;11.754;2022-12-29T02:43:43;96525.94;;;10.50;57.49
21185;BME280;18176;49.502;11.754;2022-12-29T02:48:00;96532.06;;;10.50;57.52
21185;BME280;18176;49.502;11.754;2022-12-29T02:52:10;96495.28;;;10.37;56.97
21185;BME280;18176;49.502;11.754;2022-12-29T02:56:13;96530.53;;;10.54;56.79
21185;BME280;18176;49.502;11.754;2022-12-29T03:00:17;96525.28;;;10.43;57.05
21185;BME280;18176;49.502;11.754;2022-12-29T03:04:31;96521.44;;;10.34;57.21
21185;BME280;18176;49.502;11.754;2022-12-29T03:08:46;96521.31;;;10.12;57.51
21185;BME280;18176;49.502;11.754;2022-12-29T03:12:56;96522.81;;;10.08;58.15
21185;BME280;18176;49.502;11.754;2022-12-29T03:17:20;96490.66;;;10.16;57.70
21185;BME280;18176;49.502;11.754;2022-12-29T03:21:32;96523.78;;;10.47;56.82
21185;BME280;18176;49.502;11.754;2022-12-29T03:25:52;96512.91;;;10.32;57.20
21185;BME280;18176;49.502;11.754;2022-12-29T03:29:58;96513.56;;;10.39;57.10
21185;BME280;18176;49.502;11.754;2022-12-29T03:34:00;96508.44;;;10.32;57.08
21185;BME280;18176;49.502;11.754;2022-12-29T03:38:12;96503.59;;;10.29;56.74
21185;BME280;18176;49.502;11.754;2022-12-29T03:42:21;96502.31;;;10.15;56.93
21185;BME280;18176;49.502;11.754;2022-12-29T03:46:23;96500.88;;;10.24;57.11
21185;BME280;18176;49.502;11.754;2022-12-29T03:50:24;96499.06;;;10.13;57.01
21185;BME280;18176;49.502;11.754;2022-12-29T03:54:27;96496.63;;;10.23;56.52
21185;BME280;18176;49.502;11.754;2022-12-29T03:58:28;96494.16;;;10.50;55.80
21185;BME280;18176;49.502;11.754;2022-12-29T04:02:37;96500.75;;;10.64;55.27
21185;BME280;18176;49.502;11.754;2022-12-29T04:06:39;96499.56;;;10.72;54.94
21185;BME280;18176;49.502;11.754;2022-12-29T04:10:42;96500.59;;;10.37;55.66
21185;BME280;18176;49.502;11.754;2022-12-29T04:14:45;96491.44;;;10.45;55.49
21185;BME280;18176;49.502;11.754;2022-12-29T04:18:45;96498.34;;;10.46;55.37
21185;BME280;18176;49.502;11.754;2022-12-29T04:22:45;96498.09;;;10.64;55.19
21185;BME280;18176;49.502;11.754;2022-12-29T04:26:48;96495.94;;;10.78;55.05
21185;BME280;18176;49.502;11.754;2022-12-29T04:30:58;96500.28;;;10.84;54.59
21185;BME280;18176;49.502;11.754;2022-12-29T04:35:05;96493.06;;;10.79;54.25
21185;BME280;18176;49.502;11.754;2022-12-29T04:39:06;96496.28;;;10.65;54.62
21185;BME280;18176;49.502;11.754;2022-12-29T04:43:12;96495.28;;;10.87;55.20
21185;BME280;18176;49.502;11.754;2022-12-29T04:47:43;96495.06;;;10.89;55.52
21185;BME280;18176;49.502;11.754;2022-12-29T04:52:07;96494.00;;;10.90;55.86
21185;BME280;18176;49.502;11.754;2022-12-29T04:56:09;96484.84;;;10.97;55.36
21185;BME280;18176;49.502;11.754;2022-12-29T05:00:13;96490.63;;;10.94;55.19
21185;BME280;18176;49.502;11.754;2022-12-29T05:04:15;96492.59;;;10.66;55.47
21185;BME280;18176;49.502;11.754;2022-12-29T05:08:16;96481.75;;;10.84;55.37
21185;BME280;18176;49.502;11.754;2022-12-29T05:12:24;96472.81;;;10.73;55.28
21185;BME280;18176;49.502;11.754;2022-12-29T05:16:31;96476.19;;;10.69;56.06
21185;BME280;18176;49.502;11.754;2022-12-29T05:20:31;96486.16;;;10.62;56.38
21185;BME280;18176;49.502;11.754;2022-12-29T05:24:32;96464.81;;;10.68;56.14
21185;BME280;18176;49.502;11.754;2022-12-29T05:28:32;96456.88;;;10.68;55.58
21185;BME280;18176;49.502;11.754;2022-12-29T05:32:42;96467.03;;;10.93;55.24
21185;BME280;18176;49.502;11.754;2022-12-29T05:36:43;96482.59;;;10.89;54.92
21185;BME280;18176;49.502;11.754;2022-12-29T05:40:44;96478.75;;;10.97;54.14
21185;BME280;18176;49.502;11.754;2022-12-29T05:45:09;96478.34;;;11.05;53.89
21185;BME280;18176;49.502;11.754;2022-12-29T05:49:45;96494.09;;;11.33;53.44
21185;BME280;18176;49.502;11.754;2022-12-29T05:54:01;96493.16;;;11.39;53.10
21185;BME280;18176;49.502;11.754;2022-12-29T05:58:01;96448.59;;;11.03;53.35
21185;BME280;18176;49.502;11.754;2022-12-29T06:02:01;96472.25;;;11.26;52.63
21185;BME280;18176;49.502;11.754;2022-12-29T06:06:05;96482.09;;;11.47;52.49
21185;BME280;18176;49.502;11.754;2022-12-29T06:10:08;96477.72;;;11.36;52.17
21185;BME280;18176;49.502;11.754;2022-12-29T06:14:19;96463.00;;;11.07;52.58
21185;BME280;18176;49.502;11.754;2022-12-29T06:18:19;96473.06;;;11.26;51.76
21185;BME280;18176;49.502;11.754;2022-12-29T06:22:23;96445.97;;;11.03;52.65
21185;BME280;18176;49.502;11.754;2022-12-29T06:26:23;96462.22;;;10.90;53.28
21185;BME280;18176;49.502;11.754;2022-12-29T06:30:23;96454.22;;;10.68;53.26
21185;BME280;18176;49.502;11.754;2022-12-29T06:34:24;96483.88;;;10.87;52.71
21185;BME280;18176;49.502;11.754;2022-12-29T06:38:27;96474.19;;;10.76;53.08
21185;BME280;18176;49.502;11.754;2022-12-29T06:42:28;96471.69;;;10.86;52.54
21185;BME280;18176;49.502;11.754;2022-12-29T06:46:56;96480.69;;;10.85;52.56
21185;BME280;18176;49.502;11.754;2022-12-29T06:50:57;96480.03;;;10.78;52.91
21185;BME280;18176;49.502;11.754;2022-12-29T06:54:59;96486.47;;;10.82;52.20
21185;BME280;18176;49.502;11.754;2022-12-29T06:59:00;96469.75;;;10.98;52.09
21185;BME280;18176;49.502;11.754;2022-12-29T07:03:00;96496.31;;;11.03;51.48
21185;BME280;18176;49.502;11.754;2022-12-29T07:07:00;96463.50;;;10.71;51.73
21185;BME280;18176;49.502;11.754;2022-12-29T07:11:03;96480.84;;;10.95;51.53
21185;BME280;18176;49.502;11.754;2022-12-29T07:15:05;96481.81;;;10.72;51.71
21185;BME280;18176;49.502;11.754;2022-12-29T07:19:05;96467.38;;;10.80;51.70
21185;BME280;18176;49.502;11.754;2022-12-29T07:23:06;96494.19;;;11.00;50.97
21185;BME280;18176;49.502;11.754;2022-12-29T07:27:08;96484.53;;;10.94;51.24
21185;BME280;18176;49.502;11.754;2022-12-29T07:31:14;96504.44;;;11.13;50.32
21185;BME280;18176;49.502;11.754;2022-12-29T07:35:15;96490.16;;;11.14;50.48
21185;BME280;18176;49.502;11.754;2022-12-29T07:39:16;96497.53;;;11.12;50.56
21185;BME280;18176;49.502;11.754;2022-12-29T07:43:19;96495.28;;;11.20;50.46
21185;BME280;18176;49.502;11.754;2022-12-29T07:47:39;96499.75;;;11.37;50.10
21185;BME280;18176;49.502;11.754;2022-12-29T07:51:39;96499.09;;;11.46;50.05
21185;BME280;18176;49.502;11.754;2022-12-29T07:55:40;96507.41;;;11.71;49.42
21185;BME280;18176;49.502;11.754;2022-12-29T07:59:44;96490.47;;;11.77;49.33
21185;BME280;18176;49.502;11.754;2022-12-29T08:03:44;96516.06;;;12.10;48.62
21185;BME280;18176;49.502;11.754;2022-12-29T08:07:51;96520.88;;;12.13;48.54
21185;BME280;18176;49.502;11.754;2022-12-29T08:11:51;96519.41;;;12.22;48.26
21185;BME280;18176;49.502;11.754;2022-12-29T08:15:58;96520.75;;;12.25;48.35
21185;BME280;18176;49.502;11.754;2022-12-29T08:19:58;96512.78;;;12.25;47.97
21185;BME280;18176;49.502;11.754;2022-12-29T08:23:59;96507.66;;;12.45;47.45
21185;BME280;18176;49.502;11.754;2022-12-29T08:27:59;96527.31;;;12.71;47.38
21185;BME280;18176;49.502;11.754;2022-12-29T08:32:02;96529.28;;;12.85;47.11
21185;BME280;18176;49.502;11.754;2022-12-29T08:36:06;96522.75;;;12.98;46.92
21185;BME280;18176;49.502;11.754;2022-12-29T08:40:08;96526.66;;;12.90;47.32
21185;BME280;18176;49.502;11.754;2022-12-29T08:44:09;96499.81;;;12.60;47.34
21185;BME280;18176;49.502;11.754;2022-12-29T08:48:12;96537.06;;;12.65;47.50
21185;BME280;18176;49.502;11.754;2022-12-29T08:52:15;96528.09;;;12.71;47.60
21185;BME280;18176;49.502;11.754;2022-12-29T08:56:16;96497.53;;;12.42;48.07
21185;BME280;18176;49.502;11.754;2022-12-29T09:00:21;96466.50;;;12.21;48.25
21185;BME280;18176;49.502;11.754;2022-12-29T09:04:25;96525.47;;;12.76;47.74
21185;BME280;18176;49.502;11.754;2022-12-29T09:08:25;96532.47;;;13.14;46.92
21185;BME280;18176;49.502;11.754;2022-12-29T09:12:26;96517.91;;;13.26;46.78
21185;BME280;18176;49.502;11.754;2022-12-29T09:16:34;96538.34;;;13.58;46.50
21185;BME280;18176;49.502;11.754;2022-12-29T09:20:37;96527.22;;;13.71;45.77
21185;BME280;18176;49.502;11.754;2022-12-29T09:24:37;96528.97;;;14.07;45.01
21185;BME280;18176;49.502;11.754;2022-12-29T09:28:38;96530.19;;;14.51;44.66
21185;BME280;18176;49.502;11.754;2022-12-29T09:32:44;96524.09;;;14.96;43.74
21185;BME280;18176;49.502;11.754;2022-12-29T09:36:53;96522.38;;;15.86;42.53
21185;BME280;18176;49.502;11.754;2022-12-29T09:40:58;96523.91;;;16.95;40.37
21185;BME280;18176;49.502;11.754;2022-12-29T09:45:11;96497.31;;;17.66;39.41
21185;BME280;18176;49.502;11.754;2022-12-29T09:49:23;96501.75;;;17.51;38.94
21185;BME280;18176;49.502;11.754;2022-12-29T09:53:36;96397.06;;;17.19;39.12
21185;BME280;18176;49.502;11.754;2022-12-29T09:57:45;96514.31;;;18.22;38.01
21185;BME280;18176;49.502;11.754;2022-12-29T10:01:57;96458.41;;;17.44;39.03
21185;BME280;18176;49.502;11.754;2022-12-29T10:06:13;96493.06;;;17.83;38.62
21185;BME280;18176;49.502;11.754;2022-12-29T10:10:35;96460.56;;;17.90;38.87
21185;BME280;18176;49.502;11.754;2022-12-29T10:14:55;96447.72;;;18.66;37.52
21185;BME280;18176;49.502;11.754;2022-12-29T10:19:37;96472.09;;;19.48;36.73
21185;BME280;18176;49.502;11.754;2022-12-29T10:23:47;96458.34;;;18.90;37.53
21185;BME280;18176;49.502;11.754;2022-12-29T10:27:57;96398.91;;;17.90;39.02
21185;BME280;18176;49.502;11.754;2022-12-29T10:32:03;96422.16;;;17.28;40.99
21185;BME280;18176;49.502;11.754;2022-12-29T10:36:16;96404.88;;;16.58;42.32
21185;BME280;18176;49.502;11.754;2022-12-29T10:40:24;96474.03;;;16.75;43.00
21185;BME280;18176;49.502;11.754;2022-12-29T10:44:31;96457.56;;;17.20;42.79
21185;BME280;18176;49.502;11.754;2022-12-29T10:48:34;96454.28;;;17.28;42.63
21185;BME280;18176;49.502;11.754;2022-12-29T10:52:38;96453.19;;;17.58;42.14
21185;BME280;18176;49.502;11.754;2022-12-29T10:56:43;96456.31;;;17.36;42.33
21185;BME280;18176;49.502;11.754;2022-12-29T11:00:51;96449.56;;;17.15;42.84
21185;BME280;18176;49.502;11.754;2022-12-29T11:05:00;96443.00;;;17.03;43.04
21185;BME280;18176;49.502;11.754;2022-12-29T11:09:12;96449.06;;;17.13;43.54
21185;BME280;18176;49.502;11.754;2022-12-29T11:13:18;96456.44;;;17.26;42.74
21185;BME280;18176;49.502;11.754;2022-12-29T11:17:21;96427.13;;;17.11;42.76
21185;BME280;18176;49.502;11.754;2022-12-29T11:21:31;96424.00;;;17.57;42.35
21185;BME280;18176;49.502;11.754;2022-12-29T11:25:37;96434.91;;;17.36;42.90
21185;BME280;18176;49.502;11.754;2022-12-29T11:29:41;96441.59;;;17.10;43.37
21185;BME280;18176;49.502;11.754;2022-12-29T11:33:45;96436.47;;;17.14;43.42
21185;BME280;18176;49.502;11.754;2022-12-29T11:37:45;96417.53;;;17.10;43.36
21185;BME280;18176;49.502;11.754;2022-12-29T11:41:52;96426.19;;;16.97;43.92
21185;BME280;18176;49.502;11.754;2022-12-29T11:45:53;96416.88;;;17.18;43.16
21185;BME280;18176;49.502;11.754;2022-12-29T11:49:59;96404.19;;;17.05;43.45
21185;BME280;18176;49.502;11.754;2022-12-29T11:54:02;96384.81;;;16.56;43.93
21185;BME280;18176;49.502;11.754;2022-12-29T11:58:04;96394.22;;;16.82;43.82
21185;BME280;18176;49.502;11.754;2022-12-29T12:02:26;96406.94;;;16.95;43.35
21185;BME280;18176;49.502;11.754;2022-12-29T12:06:48;96409.38;;;17.20;43.59
21185;BME280;18176;49.502;11.754;2022-12-29T12:10:55;96394.69;;;17.41;42.88
21185;BME280;18176;49.502;11.754;2022-12-29T12:14:59;96405.22;;;17.99;42.29
21185;BME280;18176;49.502;11.754;2022-12-29T12:19:30;96404.94;;;18.19;42.13
21185;BME280;18176;49.502;11.754;2022-12-29T12:23:45;96393.63;;;17.85;42.31
21185;BME280;18176;49.502;11.754;2022-12-29T12:27:59;96391.88;;;17.94;42.43
21185;BME280;18176;49.502;11.754;2022-12-29T12:32:10;96398.78;;;17.58;42.68
21185;BME280;18176;49.502;11.754;2022-12-29T12:36:28;96387.69;;;18.25;42.18
21185;BME280;18176;49.502;11.754;2022-12-29T12:40:58;96396.22;;;18.64;41.50
21185;BME280;18176;49.502;11.754;2022-12-29T12:45:24;96386.69;;;18.02;42.89
21185;BME280;18176;49.502;11.754;2022-12-29T12:49:51;96376.53;;;17.81;43.09
21185;BME280;18176;49.502;11.754;2022-12-29T12:54:17;96378.78;;;18.30;42.32
21185;BME280;18176;49.502;11.754;2022-12-29T12:58:33;96405.78;;;18.33;42.26
21185;BME280;18176;49.502;11.754;2022-12-29T13:02:56;96402.75;;;17.84;43.30
21185;BME280;18176;49.502;11.754;2022-12-29T13:07:14;96407.00;;;17.66;43.67
21185;BME280;18176;49.502;11.754;2022-12-29T13:11:29;96405.94;;;17.86;43.54
21185;BME280;18176;49.502;11.754;2022-12-29T13:15:45;96398.44;;;17.40;44.91
21185;BME280;18176;49.502;11.754;2022-12-29T13:20:00;96395.00;;;17.11;44.43
21185;BME280;18176;49.502;11.754;2022-12-29T13:24:13;96400.03;;;17.41;44.91
21185;BME280;18176;49.502;11.754;2022-12-29T13:28:23;96377.16;;;17.54;44.11
21185;BME280;18176;49.502;11.754;2022-12-29T13:32:41;96400.53;;;17.43;44.63
21185;BME280;18176;49.502;11.754;2022-12-29T13:36:48;96410.06;;;17.54;44.70
21185;BME280;18176;49.502;11.754;2022-12-29T13:40:56;96411.19;;;17.25;45.02
21185;BME280;18176;49.502;11.754;2022-12-29T13:45:02;96420.53;;;17.27;45.40
21185;BME280;18176;49.502;11.754;2022-12-29T13:49:13;96401.28;;;17.49;45.24
21185;BME280;18176;49.502;11.754;2022-12-29T13:53:25;96411.53;;;17.18;45.39
21185;BME280;18176;49.502;11.754;2022-12-29T13:57:39;96430.03;;;17.38;45.36
21185;BME280;18176;49.502;11.754;2022-12-29T14:01:50;96416.88;;;17.18;45.61
21185;BME280;18176;49.502;11.754;2022-12-29T14:06:15;96427.38;;;17.38;45.53
21185;BME280;18176;49.502;11.754;2022-12-29T14:10:28;96425.09;;;17.27;45.80
21185;BME280;18176;49.502;11.754;2022-12-29T14:14:31;96422.16;;;17.28;45.66
21185;BME280;18176;49.502;11.754;2022-12-29T14:18:33;96409.72;;;17.37;45.31
21185;BME280;18176;49.502;11.754;2022-12-29T14:22:57;96433.75;;;17.19;45.99
21185;BME280;18176;49.502;11.754;2022-12-29T14:26:58;96423.84;;;17.19;45.65
21185;BME280;18176;49.502;11.754;2022-12-29T14:30:59;96436.44;;;16.90;46.82
21185;BME280;18176;49.502;11.754;2022-12-29T14:35:40;96436.84;;;17.02;46.14
21185;BME280;18176;49.502;11.754;2022-12-29T14:39:44;96436.34;;;17.00;46.22
21185;BME280;18176;49.502;11.754;2022-12-29T14:43:55;96437.78;;;16.88;47.10
21185;BME280;18176;49.502;11.754;2022-12-29T14:47:57;96442.28;;;16.63;47.26
21185;BME280;18176;49.502;11.754;2022-12-29T14:52:08;96442.59;;;16.57;47.78
21185;BME280;18176;49.502;11.754;2022-12-29T14:56:18;96426.91;;;16.40;47.82
21185;BME280;18176;49.502;11.754;2022-12-29T15:00:23;96443.75;;;16.41;47.85
21185;BME280;18176;49.502;11.754;2022-12-29T15:04:30;96448.06;;;16.37;48.54
21185;BME280;18176;49.502;11.754;2022-12-29T15:08:38;96394.84;;;15.96;48.48
21185;BME280;18176;49.502;11.754;2022-12-29T15:12:49;96446.47;;;16.36;48.52
21185;BME280;18176;49.502;11.754;2022-12-29T15:16:51;96455.50;;;16.45;48.57
21185;BME280;18176;49.502;11.754;2022-12-29T15:20:55;96442.72;;;16.37;48.40
21185;BME280;18176;49.502;11.754;2022-12-29T15:24:57;96473.22;;;16.31;49.24
21185;BME280;18176;49.502;11.754;2022-12-29T15:29:00;96465.69;;;16.38;48.73
21185;BME280;18176;49.502;11.754;2022-12-29T15:33:00;96467.41;;;16.18;49.38
21185;BME280;18176;49.502;11.754;2022-12-29T15:37:07;96472.09;;;16.42;48.86
21185;BME280;18176;49.502;11.754;2022-12-29T15:41:25;96483.91;;;16.36;49.34
21185;BME280;18176;49.502;11.754;2022-12-29T15:45:33;96482.84;;;16.37;49.21
21185;BME280;18176;49.502;11.754;2022-12-29T15:49:35;96478.56;;;16.36;49.32
21185;BME280;18176;49.502;11.754;2022-12-29T15:53:35;96436.44;;;16.12;49.30
21185;BME280;18176;49.502;11.754;2022-12-29T15:57:42;96470.44;;;16.51;49.48
21185;BME280;18176;49.502;11.754;2022-12-29T16:01:45;96469.91;;;16.54;49.27
21185;BME280;18176;49.502;11.754;2022-12-29T16:05:53;96465.50;;;16.29;49.81
21185;BME280;18176;49.502;11.754;2022-12-29T16:09:58;96450.94;;;16.45;49.34
21185;BME280;18176;49.502;11.754;2022-12-29T16:13:58;96455.47;;;16.50;49.41
21185;BME280;18176;49.502;11.754;2022-12-29T16:18:02;96458.78;;;16.37;49.66
21185;BME280;18176;49.502;11.754;2022-12-29T16:22:09;96455.53;;;16.35;49.58
21185;BME280;18176;49.502;11.754;2022-12-29T16:26:16;96420.22;;;15.99;50.26
21185;BME280;18176;49.502;11.754;2022-12-29T16:30:21;96460.28;;;16.04;50.84
21185;BME280;18176;49.502;11.754;2022-12-29T16:34:42;96460.84;;;15.96;50.77
21185;BME280;18176;49.502;11.754;2022-12-29T16:38:42;96473.50;;;15.80;51.15
21185;BME280;18176;49.502;11.754;2022-12-29T16:42:46;96473.50;;;15.75;51.34
21185;BME280;18176;49.502;11.754;2022-12-29T16:47:16;96463.31;;;15.82;51.33
21185;BME280;18176;49.502;11.754;2022-12-29T16:51:30;96464.38;;;15.86;51.24
21185;BME280;18176;49.502;11.754;2022-12-29T16:55:31;96470.22;;;15.93;51.36
21185;BME280;18176;49.502;11.754;2022-12-29T16:59:35;96477.16;;;15.94;50.96
21185;BME280;18176;49.502;11.754;2022-12-29T17:03:41;96475.03;;;15.91;51.25
21185;BME280;18176;49.502;11.754;2022-12-29T17:07:46;96476.66;;;15.92;51.51
21185;BME280;18176;49.502;11.754;2022-12-29T17:11:51;96483.16;;;15.71;52.10
21185;BME280;18176;49.502;11.754;2022-12-29T17:16:09;96484.66;;;15.97;51.48
21185;BME280;18176;49.502;11.754;2022-12-29T17:20:17;96489.09;;;16.12;51.06
21185;BME280;18176;49.502;11.754;2022-12-29T17:24:21;96486.06;;;16.34;50.99
21185;BME280;18176;49.502;11.754;2022-12-29T17:28:24;96471.75;;;16.09;51.77
21185;BME280;18176;49.502;11.754;2022-12-29T17:32:26;96469.72;;;15.86;52.34
21185;BME280;18176;49.502;11.754;2022-12-29T17:36:26;96477.16;;;15.94;52.25
21185;BME280;18176;49.502;11.754;2022-12-29T17:40:32;96482.47;;;16.04;52.29
21185;BME280;18176;49.502;11.754;2022-12-29T17:44:32;96463.28;;;15.97;52.15
21185;BME280;18176;49.502;11.754;2022-12-29T17:48:33;96479.75;;;16.09;51.69
21185;BME280;18176;49.502;11.754;2022-12-29T17:52:33;96474.13;;;16.16;51.63
21185;BME280;18176;49.502;11.754;2022-12-29T17:56:36;96489.28;;;16.26;51.19
21185;BME280;18176;49.502;11.754;2022-12-29T18:00:36;96488.03;;;16.18;51.02
21185;BME280;18176;49.502;11.754;2022-12-29T18:04:37;96493.16;;;16.04;51.43
21185;BME280;18176;49.502;11.754;2022-12-29T18:08:39;96494.78;;;16.54;50.34
21185;BME280;18176;49.502;11.754;2022-12-29T18:12:46;96510.03;;;16.54;50.33
21185;BME280;18176;49.502;11.754;2022-12-29T18:16:47;96527.47;;;16.41;50.75
21185;BME280;18176;49.502;11.754;2022-12-29T18:20:50;96555.03;;;16.37;51.96
21185;BME280;18176;49.502;11.754;2022-12-29T18:24:51;96574.94;;;16.05;55.81
21185;BME280;18176;49.502;11.754;2022-12-29T18:28:55;96566.50;;;15.53;58.18
21185;BME280;18176;49.502;11.754;2022-12-29T18:32:55;96561.72;;;15.05;59.22
21185;BME280;18176;49.502;11.754;2022-12-29T18:36:55;96538.75;;;15.09;59.61
21185;BME280;18176;49.502;11.754;2022-12-29T18:40:58;96524.91;;;14.87;60.03
21185;BME280;18176;49.502;11.754;2022-12-29T18:45:01;96526.22;;;14.64;60.32
21185;BME280;18176;49.502;11.754;2022-12-29T18:49:01;96535.53;;;14.56;61.31
21185;BME280;18176;49.502;11.754;2022-12-29T18:53:01;96521.66;;;14.64;61.74
21185;BME280;18176;49.502;11.754;2022-12-29T18:57:02;96527.00;;;14.64;62.18
21185;BME280;18176;49.502;11.754;2022-12-29T19:01:06;96541.38;;;14.53;62.48
21185;BME280;18176;49.502;11.754;2022-12-29T19:05:20;96540.34;;;14.59;62.02
21185;BME280;18176;49.502;11.754;2022-12-29T19:09:20;96559.00;;;14.54;61.79
21185;BME280;18176;49.502;11.754;2022-12-29T19:13:23;96525.91;;;14.40;61.59
21185;BME280;18176;49.502;11.754;2022-12-29T19:17:28;96571.53;;;14.59;61.62
21185;BME280;18176;49.502;11.754;2022-12-29T19:21:28;96577.13;;;14.62;61.97
21185;BME280;18176;49.502;11.754;2022-12-29T19:25:30;96568.03;;;14.53;62.61
21185;BME280;18176;49.502;11.754;2022-12-29T19:29:30;96588.34;;;14.59;62.12
21185;BME280;18176;49.502;11.754;2022-12-29T19:33:34;96579.78;;;14.57;62.64
21185;BME280;18176;49.502;11.754;2022-12-29T19:37:34;96575.53;;;14.61;62.53
21185;BME280;18176;49.502;11.754;2022-12-29T19:41:36;96588.84;;;14.56;62.60
21185;BME280;18176;49.502;11.754;2022-12-29T19:45:38;96571.53;;;14.64;62.38
21185;BME280;18176;49.502;11.754;2022-12-29T19:49:42;96569.69;;;14.80;62.06
21185;BME280;18176;49.502;11.754;2022-12-29T19:53:42;96577.19;;;14.83;62.42
21185;BME280;18176;49.502;11.754;2022-12-29T19:57:44;96528.78;;;14.29;63.00
21185;BME280;18176;49.502;11.754;2022-12-29T20:01:45;96579.78;;;14.57;62.86
21185;BME280;18176;49.502;11.754;2022-12-29T20:05:49;96576.59;;;14.65;62.81
21185;BME280;18176;49.502;11.754;2022-12-29T20:09:50;96588.38;;;14.80;62.42
21185;BME280;18176;49.502;11.754;2022-12-29T20:13:50;96576.63;;;14.75;62.30
21185;BME280;18176;49.502;11.754;2022-12-29T20:17:51;96569.16;;;14.77;62.33
21185;BME280;18176;49.502;11.754;2022-12-29T20:22:12;96570.50;;;14.80;62.42
21185;BME280;18176;49.502;11.754;2022-12-29T20:26:16;96580.91;;;14.87;62.58
21185;BME280;18176;49.502;11.754;2022-12-29T20:30:17;96579.22;;;14.55;63.49
21185;BME280;18176;49.502;11.754;2022-12-29T20:34:19;96585.94;;;14.68;62.96
21185;BME280;18176;49.502;11.754;2022-12-29T20:38:22;96559.00;;;14.54;62.46
21185;BME280;18176;49.502;11.754;2022-12-29T20:42:22;96574.47;;;14.67;62.34
21185;BME280;18176;49.502;11.754;2022-12-29T20:46:23;96581.94;;;14.65;62.17
21185;BME280;18176;49.502;11.754;2022-12-29T20:50:32;96582.44;;;14.52;62.78
21185;BME280;18176;49.502;11.754;2022-12-29T20:54:35;96582.72;;;14.56;62.59
21185;BME280;18176;49.502;11.754;2022-12-29T20:58:36;96586.16;;;14.51;62.71
21185;BME280;18176;49.502;11.754;2022-12-29T21:02:57;96580.16;;;14.19;63.40
21185;BME280;18176;49.502;11.754;2022-12-29T21:06:58;96582.44;;;14.52;62.83
21185;BME280;18176;49.502;11.754;2022-12-29T21:11:02;96566.88;;;14.29;62.77
21185;BME280;18176;49.502;11.754;2022-12-29T21:15:04;96592.81;;;14.39;62.75
21185;BME280;18176;49.502;11.754;2022-12-29T21:19:05;96565.88;;;14.35;62.68
21185;BME280;18176;49.502;11.754;2022-12-29T21:23:06;96589.56;;;14.37;63.48
21185;BME280;18176;49.502;11.754;2022-12-29T21:27:09;96555.31;;;13.98;63.60
21185;BME280;18176;49.502;11.754;2022-12-29T21:31:14;96573.78;;;14.20;64.11